createdAt,value
2023-01-08T00:01:06.945Z,15
2023-01-08T00:06:31.503Z,14.9
2023-01-08T00:11:38.828Z,14.8
2023-01-08T00:17:02.190Z,14.9
2023-01-08T00:22:24.997Z,15.1
2023-01-08T00:27:47.332Z,15.2
2023-01-08T00:32:55.242Z,15.2
2023-01-08T00:38:18.526Z,15.2
2023-01-08T00:43:41.056Z,15.2
2023-01-08T00:49:04.821Z,15.3
2023-01-08T00:54:12.833Z,15.3
2023-01-08T00:59:35.254Z,15.2
2023-01-08T01:04:43.937Z,15.1
2023-01-08T01:10:07.724Z,14.9
2023-01-08T01:15:30.415Z,14.8
2023-01-08T01:20:38.493Z,14.8
2023-01-08T01:26:02.509Z,14.8
2023-01-08T01:31:25.033Z,15
2023-01-08T01:36:32.830Z,15
2023-01-08T01:41:56.467Z,15.1
2023-01-08T01:47:03.128Z,15
2023-01-08T01:52:26.525Z,14.9
2023-01-08T01:57:50.221Z,14.8
2023-01-08T02:03:14.728Z,14.7
2023-01-08T02:08:37.888Z,14.7
2023-01-08T02:14:01.901Z,14.8
2023-01-08T02:19:24.671Z,14.9
2023-01-08T02:24:32.075Z,15
2023-01-08T02:29:55.707Z,14.9
2023-01-08T02:35:17.812Z,14.9
2023-01-08T02:40:25.508Z,14.7
2023-01-08T02:45:33.938Z,14.6
2023-01-08T02:50:56.490Z,14.6
2023-01-08T02:56:19.902Z,14.6
2023-01-08T03:01:43.775Z,14.7
2023-01-08T03:07:07.864Z,14.8
2023-01-08T03:12:30.706Z,14.8
2023-01-08T03:17:54.859Z,14.8
2023-01-08T03:23:19.252Z,14.9
2023-01-08T03:28:27.371Z,14.9
2023-01-08T03:33:50.992Z,14.9
2023-01-08T03:39:13.025Z,14.8
2023-01-08T03:44:20.082Z,14.7
2023-01-08T03:49:43.803Z,14.6
2023-01-08T03:55:06.156Z,14.5
2023-01-08T04:00:29.266Z,14.5
2023-01-08T04:05:54.272Z,14.7
2023-01-08T04:11:16.437Z,14.8
2023-01-08T04:16:39.796Z,14.8
2023-01-08T04:22:04.036Z,14.9
2023-01-08T04:27:10.156Z,14.8
2023-01-08T04:32:32.883Z,14.6
2023-01-08T04:37:56.831Z,14.5
2023-01-08T04:43:03.080Z,14.4
2023-01-08T04:48:26.068Z,14.4
2023-01-08T04:53:49.509Z,14.5
2023-01-08T04:59:12.006Z,14.6
2023-01-08T05:04:36.934Z,14.8
2023-01-08T05:10:02.428Z,14.8
2023-01-08T05:15:09.901Z,14.7
2023-01-08T05:20:35.581Z,14.6
2023-01-08T05:25:59.557Z,14.4
2023-01-08T05:31:22.522Z,14.4
2023-01-08T05:36:45.840Z,14.3
2023-01-08T05:41:54.105Z,14.4
2023-01-08T05:47:01.069Z,14.4
2023-01-08T05:52:24.186Z,14.4
2023-01-08T05:57:50.850Z,14.6
2023-01-08T06:03:13.609Z,14.6
2023-01-08T06:08:36.278Z,14.7
2023-01-08T06:13:59.712Z,14.6
2023-01-08T06:19:22.558Z,14.5
2023-01-08T06:23:59.714Z,14.4
2023-01-08T06:28:35.631Z,14.3
2023-01-08T06:33:58.766Z,14.3
2023-01-08T06:39:21.920Z,14.3
2023-01-08T06:44:32.002Z,14.4
2023-01-08T06:49:55.246Z,14.6
2023-01-08T06:55:05.550Z,14.6
2023-01-08T07:00:46.896Z,14.7
2023-01-08T07:06:11.389Z,14.6
2023-01-08T07:11:34.836Z,14.5
2023-01-08T07:16:58.250Z,14.4
2023-01-08T07:22:21.652Z,14.3
2023-01-08T07:27:44.580Z,14.2
2023-01-08T07:33:01.245Z,14.3
2023-01-08T07:38:27.655Z,14.4
2023-01-08T07:43:51.016Z,14.6
2023-01-08T07:49:14.261Z,14.5
2023-01-08T07:54:21.564Z,14.4
2023-01-08T07:59:29.056Z,14.3
2023-01-08T08:04:55.426Z,14.3
2023-01-08T08:10:17.964Z,14.2
2023-01-08T08:15:41.274Z,14.3
2023-01-08T08:21:04.511Z,14.4
2023-01-08T08:26:27.369Z,14.3
2023-01-08T08:31:51.239Z,14.4
2023-01-08T08:37:14.240Z,14.4
2023-01-08T08:42:37.172Z,14.4
2023-01-08T08:48:02.837Z,14.4
2023-01-08T08:53:27.660Z,14.3
2023-01-08T08:58:50.302Z,14.2
2023-01-08T09:04:15.781Z,14.1
2023-01-08T09:09:39.267Z,14
2023-01-08T09:15:01.864Z,14
2023-01-08T09:20:24.658Z,14.1
2023-01-08T09:25:48.232Z,14.1
2023-01-08T09:31:11.048Z,14.1
2023-01-08T09:36:34.256Z,14.1
2023-01-08T09:41:46.266Z,14.1
2023-01-08T09:47:11.116Z,14
2023-01-08T09:52:18.722Z,13.9
2023-01-08T09:57:52.707Z,14
2023-01-08T10:03:17.205Z,14.1
2023-01-08T10:08:40.113Z,14.1
2023-01-08T10:14:03.667Z,14.1
2023-01-08T10:19:27.282Z,14.1
2023-01-08T10:24:49.795Z,14
2023-01-08T10:29:59.429Z,14
2023-01-08T10:35:23.593Z,13.9
2023-01-08T10:40:48.896Z,13.9
2023-01-08T10:46:14.090Z,14.1
2023-01-08T10:51:37.160Z,14.2
2023-01-08T10:56:28.486Z,14.1
2023-01-08T11:01:37.309Z,14.1
2023-01-08T11:07:00.066Z,14.1
2023-01-08T11:12:07.552Z,14
2023-01-08T11:17:30.680Z,14.1
2023-01-08T11:22:53.922Z,14.2
2023-01-08T11:28:18.291Z,14.3
2023-01-08T11:33:41.703Z,14.3
2023-01-08T11:39:04.547Z,14.2
2023-01-08T11:44:30.159Z,14.2
2023-01-08T11:49:40.135Z,14.1
2023-01-08T11:54:31.280Z,14.2
2023-01-08T11:59:53.443Z,14.3
2023-01-08T12:05:16.699Z,14.3
2023-01-08T12:10:38.944Z,14.3
2023-01-08T12:15:45.672Z,14.3
2023-01-08T12:21:09.030Z,14.3
2023-01-08T12:26:30.842Z,14.3
2023-01-08T12:32:18.691Z,14.3
2023-01-08T12:37:41.461Z,14.4
2023-01-08T12:43:16.223Z,14.5
2023-01-08T12:48:38.164Z,14.5
2023-01-08T12:54:00.809Z,14.4
2023-01-08T12:59:23.447Z,14.4
2023-01-08T13:04:32.342Z,14.4
2023-01-08T13:09:55.180Z,14.4
2023-01-08T13:15:19.119Z,14.5
2023-01-08T13:20:26.114Z,14.6
2023-01-08T13:25:48.740Z,14.6
2023-01-08T13:30:39.993Z,14.5
2023-01-08T13:36:02.644Z,14.5
2023-01-08T13:41:42.478Z,14.4
2023-01-08T13:46:50.120Z,14.4
2023-01-08T13:51:41.818Z,14.6
2023-01-08T13:56:48.793Z,14.6
2023-01-08T14:01:56.596Z,14.6
2023-01-08T14:07:04.478Z,14.5
2023-01-08T14:12:27.611Z,14.6
2023-01-08T14:17:50.619Z,14.5
2023-01-08T14:23:13.580Z,14.5
2023-01-08T14:28:36.288Z,14.6
2023-01-08T14:33:59.259Z,14.7
2023-01-08T14:39:21.661Z,14.7
2023-01-08T14:44:37.965Z,14.6
2023-01-08T14:50:01.814Z,14.7
2023-01-08T14:55:24.469Z,14.8
2023-01-08T15:00:47.480Z,14.8
2023-01-08T15:06:13.153Z,14.8
2023-01-08T15:11:35.551Z,14.9
2023-01-08T15:16:58.522Z,14.8
2023-01-08T15:22:21.173Z,14.9
2023-01-08T15:27:28.424Z,15.1
2023-01-08T15:32:51.359Z,15.1
2023-01-08T15:37:11.927Z,14.9
2023-01-08T15:42:21.610Z,14.8
2023-01-08T15:47:30.433Z,14.7
2023-01-08T15:52:53.719Z,14.6
2023-01-08T15:58:16.728Z,14.6
2023-01-08T16:03:25.140Z,14.8
2023-01-08T16:08:32.289Z,14.8
2023-01-08T16:13:24.799Z,14.8
2023-01-08T16:18:32.429Z,14.7
2023-01-08T16:23:55.279Z,14.6
2023-01-08T16:29:17.391Z,14.6
2023-01-08T16:34:42.849Z,14.5
2023-01-08T16:40:05.783Z,14.5
2023-01-08T16:45:12.873Z,14.6
2023-01-08T16:50:35.836Z,14.7
2023-01-08T16:55:27.838Z,14.6
2023-01-08T17:01:04.400Z,14.6
2023-01-08T17:06:14.950Z,14.6
2023-01-08T17:11:07.060Z,14.5
2023-01-08T17:16:29.595Z,14.4
2023-01-08T17:21:52.427Z,14.3
2023-01-08T17:26:44.102Z,14.3
2023-01-08T17:32:07.322Z,14.3
2023-01-08T17:37:30.603Z,14.3
2023-01-08T17:42:57.607Z,14.4
2023-01-08T17:48:20.905Z,14.4
2023-01-08T17:53:43.506Z,14.6
2023-01-08T17:58:51.367Z,14.6
2023-01-08T18:04:16.678Z,14.6
2023-01-08T18:09:40.102Z,14.5
2023-01-08T18:15:03.277Z,14.4
2023-01-08T18:19:54.574Z,14.4
2023-01-08T18:25:02.415Z,14.4
2023-01-08T18:30:24.122Z,14.3
2023-01-08T18:35:47.664Z,14.3
2023-01-08T18:40:55.107Z,14.4
2023-01-08T18:46:18.458Z,14.5
2023-01-08T18:51:41.790Z,14.5
2023-01-08T18:56:50.494Z,14.4
2023-01-08T19:01:58.709Z,14.4
2023-01-08T19:07:06.415Z,14.4
2023-01-08T19:12:14.441Z,14.3
2023-01-08T19:17:39.698Z,14.3
2023-01-08T19:22:47.792Z,14.3
2023-01-08T19:27:56.578Z,14.3
2023-01-08T19:33:24.832Z,14.4
2023-01-08T19:38:47.539Z,14.5
2023-01-08T19:43:54.526Z,14.5
2023-01-08T19:49:20.515Z,14.5
2023-01-08T19:54:45.965Z,14.4
2023-01-08T19:59:56.936Z,14.4
2023-01-08T20:05:12.064Z,14.3
2023-01-08T20:10:43.472Z,14.3
2023-01-08T20:15:58.911Z,14.4
2023-01-08T20:21:30.819Z,14.4
2023-01-08T20:26:42.140Z,14.5
2023-01-08T20:32:05.990Z,14.4
2023-01-08T20:36:59.242Z,14.5
2023-01-08T20:42:17.525Z,14.6
2023-01-08T20:47:44.014Z,14.7
2023-01-08T20:53:27.764Z,14.7
2023-01-08T20:58:49.881Z,14.7
2023-01-08T21:03:26.207Z,14.7
2023-01-08T21:08:33.728Z,14.8
2023-01-08T21:13:56.109Z,14.9
2023-01-08T21:18:32.414Z,14.8
2023-01-08T21:23:40.136Z,14.8
2023-01-08T21:28:30.871Z,14.8
2023-01-08T21:33:22.614Z,15
2023-01-08T21:38:29.720Z,15
2023-01-08T21:43:36.614Z,14.9
2023-01-08T21:48:43.879Z,14.9
2023-01-08T21:53:53.060Z,14.8
2023-01-08T21:59:00.291Z,14.6
2023-01-08T22:04:07.444Z,14.6
2023-01-08T22:09:14.740Z,14.6
2023-01-08T22:14:37.852Z,14.8
2023-01-08T22:20:00.728Z,14.8
2023-01-08T22:25:07.876Z,14.9
2023-01-08T22:30:15.341Z,14.8
2023-01-08T22:35:38.210Z,14.8
2023-01-08T22:40:47.290Z,14.8
2023-01-08T22:46:12.860Z,14.9
2023-01-08T22:51:20.188Z,14.9
2023-01-08T22:56:42.577Z,14.8
2023-01-08T23:02:05.328Z,14.9
2023-01-08T23:07:12.710Z,14.9
2023-01-08T23:12:35.808Z,14.8
2023-01-08T23:17:13.942Z,14.8
2023-01-08T23:22:25.859Z,14.7
2023-01-08T23:27:49.138Z,14.6
2023-01-08T23:33:12.427Z,14.5
2023-01-08T23:38:52.597Z,14.4
2023-01-08T23:43:59.745Z,14.6
2023-01-08T23:49:22.824Z,14.7
2023-01-08T23:54:28.995Z,14.7
2023-01-08T23:59:51.796Z,14.7
